Surface/Precipitation History
01/22/2017 15:56  to  1/23/2017 15:56
Change End Date:
Date/Time
(MST)
Sf
Temp Chem Water Layer Surface Precipitation
Sfc Pvt Sub Frz Factor Pct Dpth DpthThk IcePct Cond Salin FI Type Intens Accum Rate
01/23/2017 15:55 Ice Warning 23.2F - 25F 32F 25 0% - - 100% 0 mhos 0 - None None - -
01/23/2017 15:46 Ice Warning 23.7F - 25F 32F 25 0% - - 100% 0 mhos 0 - Yes - - -
01/23/2017 15:40 Ice Warning 24.1F - 25F 32F 30 0% - - 100% 0 mhos 0 - None None - -
01/23/2017 15:36 Ice Warning 24.4F - 25F 32F 30 0% - - 100% 0 mhos 0 - Yes - - -
01/23/2017 15:26 Ice Warning 25.2F - 25F 32F 35 0% - - 100% 0 mhos 0 - Yes - - -
01/23/2017 15:25 Ice Warning 25.2F - 25F 32F 35 0% - - 100% 0 mhos 0 - None None - -
01/23/2017 15:16 Ice Warning 25.9F - 25F 32F 35 0% - - 100% 0 mhos 0 - None None - -
01/23/2017 15:10 Ice Warning 26.8F - 25F 32F 35 0% - - 100% 0 mhos 0 - Yes - - -
01/23/2017 15:06 Ice Warning 27.5F - 25F 32F 40 0% - - 100% 0 mhos 0 - None None - -
01/23/2017 14:56 Ice Warning 28.6F - 25F 32F 45 0% - - 100% 0 mhos 0 - Yes - - -
01/23/2017 14:55 Ice Warning 28.8F - 25F 32F 45 0% - - 100% 0 mhos 0 - None None - -
01/23/2017 14:46 Ice Warning 28.2F - 25F 32F 35 0% - - 100% 0 mhos 0 - Yes - - -
01/23/2017 14:40 Ice Warning 27.9F - 25F 32F 30 0% - - 100% 0 mhos 0 - None None - -
01/23/2017 14:36 Ice Warning 27.9F - 25F 32F 30 0% - - 100% 0 mhos 0 - None None - -
01/23/2017 14:26 Ice Warning 28.8F - 24F 32F 45 0% - - 100% 1 mhos 0 - None None - -
Date/Time
(MST)
Sf
Temp Chem Water Layer Surface Precipitation
Sfc Pvt Sub Frz Factor Pct Dpth DpthThk IcePct Cond Salin FI Type Intens Accum Rate
01/23/2017 14:25 Ice Warning 28.8F - 24F 32F 45 0% - - 100% 1 mhos 0 - None None - -
01/23/2017 14:16 Ice Warning 30.0F - 24F 32F 60 0% - - 100% 1 mhos 0 - None None - -
01/23/2017 14:10 Ice Warning 30.4F - 24F 32F 65 0% - - 100% 1 mhos 0 - None None - -
01/23/2017 14:06 Ice Warning 30.9F - 24F 32F 85 0% - - 100% 1 mhos 0 - Yes - - -
01/23/2017 13:56 Ice Warning 30.9F - 24F 32F 95 0% - - 100% 1 mhos 0 - None None - -
01/23/2017 13:55 Ice Warning 30.9F - 24F 32F 95 0% - - 100% 1 mhos 0 - None None - -
01/23/2017 13:46 Ice Warning 31.6F - 24F 32F 65 0% - - 100% 3 mhos 0 - None None - -
01/23/2017 13:40 Ice Warning 31.8F - 24F 32F 65 0% - - 100% 2 mhos 0 - None None - -
01/23/2017 13:36 Ice Warning 31.8F - 24F 32F 60 0% - - 100% 2 mhos 0 - None None - -
01/23/2017 13:25 Ice Warning 32.0F - 24F 32F 45 0% - - 100% 2 mhos 0 - Yes - - -
01/23/2017 13:25 Ice Warning 32.0F - 24F 32F 45 0% - - 100% 2 mhos 0 - Yes - - -
01/23/2017 13:15 Ice Warning 31.8F - 24F 32F 25 0% - - 100% 1 mhos 0 - None None - -
01/23/2017 13:10 Ice Warning 31.8F - 24F 32F 25 0% - - 100% 1 mhos 0 - None None - -
01/23/2017 13:05 Ice Warning 31.6F - 24F 32F 30 0% - - 100% 1 mhos 0 - None None - -
01/23/2017 12:55 Ice Warning 31.3F - 24F 32F 50 0% - - 100% 1 mhos 0 - None None - -
Date/Time
(MST)
Sf
Temp Chem Water Layer Surface Precipitation
Sfc Pvt Sub Frz Factor Pct Dpth DpthThk IcePct Cond Salin FI Type Intens Accum Rate
01/23/2017 12:55 Ice Warning 31.3F - 24F 32F 50 0% - - 100% 1 mhos 0 - None None - -
01/23/2017 12:45 Ice Warning 30.4F - 23F 32F 80 0% - - 100% 1 mhos 0 - None None - -
01/23/2017 12:40 Ice Warning 30.2F - 23F 32F 95 0% - - 100% 0 mhos 0 - None None - -
01/23/2017 12:35 Ice Warning 29.7F - 23F 32F 95 0% - - 100% 0 mhos 0 - None None - -
01/23/2017 12:25 Ice Watch 28.6F - 23F - 95 - - - - 0 mhos 0 - None None - -
01/23/2017 12:25 Ice Watch 28.6F - 23F - 95 - - - - 0 mhos 0 - None None - -
01/23/2017 12:15 Ice Watch 28.0F - 23F - 90 - - - - 0 mhos 0 - None None - -
01/23/2017 12:10 Ice Watch 27.9F - 23F - 85 - - - - 0 mhos 0 - None None - -
01/23/2017 12:05 Ice Watch 27.7F - 23F - 80 - - - - 0 mhos 0 - None None - -
01/23/2017 11:55 Ice Watch 27.1F - 23F - 70 - - - - 0 mhos 0 - None None - -
01/23/2017 11:55 Ice Watch 27.1F - 23F - 70 - - - - 0 mhos 0 - None None - -
01/23/2017 11:45 Ice Watch 27.1F - 22F - 65 - - - - 0 mhos 0 - None None - -
01/23/2017 11:40 Ice Watch 26.8F - 22F - 60 - - - - 0 mhos 0 - None None - -
01/23/2017 11:35 Ice Watch 26.8F - 22F - 60 - - - - 0 mhos 0 - None None - -
01/23/2017 11:25 Ice Watch 26.6F - 22F - 55 - - - - 0 mhos 0 - None None - -
Date/Time
(MST)
Sf
Temp Chem Water Layer Surface Precipitation
Sfc Pvt Sub Frz Factor Pct Dpth DpthThk IcePct Cond Salin FI Type Intens Accum Rate
01/23/2017 11:25 Ice Watch 26.6F - 22F - 55 - - - - 0 mhos 0 - None None - -
01/23/2017 11:15 Ice Watch 25.7F - 22F - 55 - - - - 0 mhos 0 - None None - -
01/23/2017 11:10 Ice Watch 25.5F - 22F - 55 - - - - 0 mhos 0 - None None - -
01/23/2017 11:05 Ice Watch 25.5F - 22F - 55 - - - - 0 mhos 0 - None None - -
01/23/2017 10:55 Ice Watch 25.2F - 22F - 50 - - - - 0 mhos 0 - None None - -
01/23/2017 10:55 Ice Watch 25.2F - 22F - 50 - - - - 0 mhos 0 - None None - -
01/23/2017 10:45 Ice Watch 24.6F - 22F - 50 - - - - 0 mhos 0 - None None - -
01/23/2017 10:40 Ice Watch 24.3F - 22F - 50 - - - - 0 mhos 0 - None None - -
01/23/2017 10:35 Ice Watch 23.9F - 22F - 45 - - - - 0 mhos 0 - None None - -
01/23/2017 10:25 Ice Watch 23.5F - 22F - 45 - - - - 0 mhos 0 - None None - -
01/23/2017 10:25 Ice Watch 23.5F - 22F - 45 - - - - 0 mhos 0 - None None - -
01/23/2017 10:15 Ice Watch 23.0F - 22F - 45 - - - - 0 mhos 0 - None None - -
01/23/2017 10:10 Ice Watch 22.5F - 22F - 40 - - - - 0 mhos 0 - None None - -
01/23/2017 10:05 Ice Watch 22.3F - 22F - 40 - - - - 0 mhos 0 - None None - -
01/23/2017 09:55 Ice Watch 21.6F - 22F - 40 - - - - 0 mhos 0 - None None - -
Date/Time
(MST)
Sf
Temp Chem Water Layer Surface Precipitation
Sfc Pvt Sub Frz Factor Pct Dpth DpthThk IcePct Cond Salin FI Type Intens Accum Rate
01/23/2017 09:54 Ice Watch 21.6F - 22F - 40 - - - - 0 mhos 0 - None None - -
01/23/2017 09:44 Ice Watch 21.0F - 22F - 35 - - - - 0 mhos 0 - None None - -
01/23/2017 09:40 Ice Watch 20.7F - 22F - 35 - - - - 0 mhos 0 - None None - -
01/23/2017 09:34 Ice Watch 20.3F - 22F - 35 - - - - 0 mhos 0 - None None - -
01/23/2017 09:25 Ice Watch 20.1F - 22F - 30 - - - - 0 mhos 0 - None None - -
01/23/2017 09:24 Ice Watch 19.9F - 22F - 30 - - - - 0 mhos 0 - None None - -
01/23/2017 09:14 Ice Watch 19.6F - 22F - 30 - - - - 0 mhos 0 - None None - -
01/23/2017 09:10 Ice Watch 19.2F - 22F - 30 - - - - 0 mhos 0 - None None - -
01/23/2017 09:04 Other - - 22F - - - - - - - - - None None - -
01/23/2017 08:55 Ice Warning 18.5F - 22F 32F 30 0% - - 100% 0 mhos 0 - None None - -
01/23/2017 08:52 Ice Warning 18.5F - 22F 32F 30 0% - - 100% 0 mhos 0 - None None - -
01/23/2017 08:41 Ice Warning 18.3F - 22F 32F 30 0% - - 100% 0 mhos 0 - None None - -
01/23/2017 08:40 Ice Warning 18.1F - 22F 32F 30 0% - - 100% 0 mhos 0 - None None - -
01/23/2017 08:31 Ice Warning 18.0F - 22F 32F 30 0% - - 100% 0 mhos 0 - None None - -
01/23/2017 08:25 Ice Warning 17.8F - 22F 32F 30 0% - - 100% 0 mhos 0 - None None - -
Date/Time
(MST)
Sf
Temp Chem Water Layer Surface Precipitation
Sfc Pvt Sub Frz Factor Pct Dpth DpthThk IcePct Cond Salin FI Type Intens Accum Rate
01/23/2017 08:21 Ice Warning 17.8F - 22F 32F 30 0% - - 100% 0 mhos 0 - None None - -
01/23/2017 08:11 Ice Warning 17.4F - 22F 32F 25 0% - - 100% 0 mhos 0 - None None - -
01/23/2017 08:10 Ice Warning 17.4F - 22F 32F 25 0% - - 100% 0 mhos 0 - None None - -
01/23/2017 08:01 Ice Warning 17.4F - 22F 32F 25 0% - - 100% 0 mhos 0 - None None - -
01/23/2017 07:55 Ice Warning 17.4F - 22F 32F 25 0% - - 100% 0 mhos 0 - None None - -
01/23/2017 07:51 Ice Warning 17.4F - 22F 32F 25 0% - - 100% 0 mhos 0 - None None - -
01/23/2017 07:41 Ice Warning 17.6F - 22F 32F 30 0% - - 100% 0 mhos 0 - None None - -
01/23/2017 07:40 Ice Warning 17.6F - 22F 32F 30 0% - - 100% 0 mhos 0 - None None - -
01/23/2017 07:31 Ice Warning 17.6F - 22F 32F 30 0% - - 100% 0 mhos 0 - None None - -
01/23/2017 07:25 Ice Warning 18.0F - 22F 32F 30 0% - - 100% 0 mhos 0 - None None - -
01/23/2017 07:21 Ice Warning 18.1F - 22F 32F 30 0% - - 100% 0 mhos 0 - None None - -
01/23/2017 07:11 Ice Warning 19.0F - 22F 32F 30 0% - - 100% 0 mhos 0 - None None - -
01/23/2017 07:10 Ice Warning 19.0F - 22F 32F 30 0% - - 100% 0 mhos 0 - None None - -
01/23/2017 07:01 Ice Warning 19.4F - 22F 32F 30 0% - - 100% 0 mhos 0 - None None - -
01/23/2017 06:55 Ice Warning 19.4F - 22F 32F 30 0% - - 100% 0 mhos 0 - Yes - - -
Date/Time
(MST)
Sf
Temp Chem Water Layer Surface Precipitation
Sfc Pvt Sub Frz Factor Pct Dpth DpthThk IcePct Cond Salin FI Type Intens Accum Rate
01/23/2017 06:51 Ice Warning 19.2F - 22F 32F 30 0% - - 100% 0 mhos 0 - Yes - - -
01/23/2017 06:41 Ice Warning 19.2F - 22F 32F 30 0% - - 100% 0 mhos 0 - None None - -
01/23/2017 06:40 Ice Warning 19.2F - 22F 32F 30 0% - - 100% 0 mhos 0 - None None - -
01/23/2017 06:31 Ice Warning 19.0F - 22F 32F 30 0% - - 100% 0 mhos 0 - None None - -
01/23/2017 06:25 Ice Warning 18.9F - 23F 32F 30 0% - - 100% 0 mhos 0 - None None - -
01/23/2017 06:21 Ice Warning 19.0F - 23F 32F 30 0% - - 100% 0 mhos 0 - Yes - - -
01/23/2017 06:11 Ice Warning 19.2F - 23F 32F 30 0% - - 100% 0 mhos 0 - Yes - - -
01/23/2017 06:10 Ice Warning 19.0F - 23F 32F 30 0% - - 100% 0 mhos 0 - Yes - - -
01/23/2017 06:00 Ice Warning 18.9F - 23F 32F 30 0% - - 100% 0 mhos 0 - Yes - - -
01/23/2017 05:55 Ice Warning 18.5F - 23F 32F 30 0% - - 100% 0 mhos 0 - Yes - - -
01/23/2017 05:50 Ice Warning 18.5F - 23F 32F 30 0% - - 100% 0 mhos 0 - Yes - - -
01/23/2017 05:40 Ice Warning 18.3F - 23F 32F 25 0% - - 100% 0 mhos 0 - Yes - - -
01/23/2017 05:40 Ice Warning 18.3F - 23F 32F 25 0% - - 100% 0 mhos 0 - Yes - - -
01/23/2017 05:30 Ice Warning 18.1F - 23F 32F 25 0% - - 100% 0 mhos 0 - Yes - - -
01/23/2017 05:25 Ice Warning 18.3F - 23F 32F 25 0% - - 100% 0 mhos 0 - Yes - - -
Date/Time
(MST)
Sf
Temp Chem Water Layer Surface Precipitation
Sfc Pvt Sub Frz Factor Pct Dpth DpthThk IcePct Cond Salin FI Type Intens Accum Rate
01/23/2017 05:20 Ice Warning 18.3F - 23F 32F 25 0% - - 100% 0 mhos 0 - Yes - - -
01/23/2017 05:10 Ice Warning 18.3F - 23F 32F 25 0% - - 100% 0 mhos 0 - Yes - - -
01/23/2017 05:10 Ice Warning 18.3F - 23F 32F 25 0% - - 100% 0 mhos 0 - Yes - - -
01/23/2017 05:00 Ice Warning 18.5F - 23F 32F 25 0% - - 100% 0 mhos 0 - Yes - - -
01/23/2017 04:55 Ice Warning 18.3F - 23F 32F 25 0% - - 100% 0 mhos 0 - Yes - - -
01/23/2017 04:50 Ice Warning 18.3F - 23F 32F 25 0% - - 100% 0 mhos 0 - Yes - - -
01/23/2017 04:40 Ice Warning 17.8F - 23F 32F 25 0% - - 100% 0 mhos 0 - Yes - - -
01/23/2017 04:40 Ice Warning 17.8F - 23F 32F 25 0% - - 100% 0 mhos 0 - Yes - - -
01/23/2017 04:30 Ice Warning 17.8F - 23F 32F 25 0% - - 100% 0 mhos 0 - Yes - - -
01/23/2017 04:25 Ice Warning 17.8F - 23F 32F 25 0% - - 100% 0 mhos 0 - Yes - - -
01/23/2017 04:20 Ice Warning 18.1F - 23F 32F 25 0% - - 100% 0 mhos 0 - Yes - - -
01/23/2017 04:10 Ice Warning 18.1F - 23F 32F 25 0% - - 100% 0 mhos 0 - None None - -
01/23/2017 04:10 Ice Warning 18.1F - 23F 32F 25 0% - - 100% 0 mhos 0 - None None - -
01/23/2017 04:00 Ice Warning 18.7F - 23F 32F 25 0% - - 100% 0 mhos 0 - None None - -
01/23/2017 03:55 Ice Warning 18.9F - 23F 32F 30 0% - - 100% 0 mhos 0 - Yes - - -
Date/Time
(MST)
Sf
Temp Chem Water Layer Surface Precipitation
Sfc Pvt Sub Frz Factor Pct Dpth DpthThk IcePct Cond Salin FI Type Intens Accum Rate
01/23/2017 03:50 Ice Warning 19.2F - 23F 32F 30 0% - - 100% 0 mhos 0 - None None - -
01/23/2017 03:40 Ice Warning 19.8F - 23F 32F 30 0% - - 100% 0 mhos 0 - None None - -
01/23/2017 03:40 Ice Warning 19.8F - 24F 32F 30 0% - - 100% 0 mhos 0 - Yes - - -
01/23/2017 03:29 Ice Warning 20.3F - 24F 32F 30 0% - - 100% 0 mhos 0 - None None - -
01/23/2017 03:25 Ice Warning 20.3F - 24F 32F 30 0% - - 100% 0 mhos 0 - Yes - - -
01/23/2017 03:19 Ice Warning 20.3F - 24F 32F 30 0% - - 100% 0 mhos 0 - Yes - - -
01/23/2017 03:10 Ice Warning 19.9F - 24F 32F 30 0% - - 100% 0 mhos 0 - Yes - - -
01/23/2017 03:09 Ice Warning 19.9F - 24F 32F 30 0% - - 100% 0 mhos 0 - Yes - - -
01/23/2017 02:59 Ice Warning 20.1F - 24F 32F 30 0% - - 100% 0 mhos 0 - None None - -
01/23/2017 02:55 Ice Warning 19.9F - 24F 32F 30 0% - - 100% 0 mhos 0 - Yes - - -
01/23/2017 02:49 Ice Warning 19.9F - 24F 32F 30 0% - - 100% 0 mhos 0 - Yes - - -
01/23/2017 02:40 Ice Warning 19.9F - 24F 32F 30 0% - - 100% 0 mhos 0 - Yes - - -
01/23/2017 02:39 Ice Warning 20.1F - 24F 32F 30 0% - - 100% 0 mhos 0 - Yes - - -
01/23/2017 02:29 Ice Warning 20.1F - 24F 32F 30 0% - - 100% 0 mhos 0 - Yes - - -
01/23/2017 02:25 Ice Warning 20.1F - 24F 32F 30 0% - - 100% 0 mhos 0 - Yes - - -
Date/Time
(MST)
Sf
Temp Chem Water Layer Surface Precipitation
Sfc Pvt Sub Frz Factor Pct Dpth DpthThk IcePct Cond Salin FI Type Intens Accum Rate
01/23/2017 02:19 Ice Warning 20.1F - 24F 32F 30 0% - - 100% 0 mhos 0 - Yes - - -
01/23/2017 02:10 Ice Warning 20.1F - 24F 32F 30 0% - - 100% 0 mhos 0 - Yes - - -
01/23/2017 02:09 Ice Warning 20.1F - 24F 32F 30 0% - - 100% 0 mhos 0 - Yes - - -
01/23/2017 01:59 Ice Warning 20.1F - 24F 32F 30 0% - - 100% 0 mhos 0 - Yes - - -
01/23/2017 01:55 Ice Warning 20.1F - 24F 32F 30 0% - - 100% 0 mhos 0 - Yes - - -
01/23/2017 01:49 Ice Warning 20.1F - 24F 32F 30 0% - - 100% 0 mhos 0 - Yes - - -
01/23/2017 01:40 Ice Warning 20.3F - 24F 32F 30 0% - - 100% 0 mhos 0 - Yes - - -
01/23/2017 01:39 Ice Warning 20.3F - 24F 32F 30 0% - - 100% 0 mhos 0 - Yes - - -
01/23/2017 01:29 Ice Warning 20.5F - 24F 32F 30 0% - - 100% 0 mhos 0 - None None - -
01/23/2017 01:25 Ice Warning 20.7F - 24F 32F 30 0% - - 100% 0 mhos 0 - None None - -
01/23/2017 01:19 Ice Warning 20.8F - 24F 32F 35 0% - - 100% 0 mhos 0 - None None - -
01/23/2017 01:10 Ice Warning 21.2F - 24F 32F 35 0% - - 100% 0 mhos 0 - None None - -
01/23/2017 01:09 Ice Warning 21.2F - 24F 32F 35 0% - - 100% 0 mhos 0 - None None - -
01/23/2017 00:59 Ice Warning 21.4F - 24F 32F 35 0% - - 100% 0 mhos 0 - Yes - - -
01/23/2017 00:55 Ice Warning 21.4F - 24F 32F 35 0% - - 100% 0 mhos 0 - Yes - - -
Date/Time
(MST)
Sf
Temp Chem Water Layer Surface Precipitation
Sfc Pvt Sub Frz Factor Pct Dpth DpthThk IcePct Cond Salin FI Type Intens Accum Rate
01/23/2017 00:48 Ice Warning 21.6F - 24F 32F 35 0% - - 100% 0 mhos 0 - Yes - - -
01/23/2017 00:40 Ice Warning 21.7F - 24F 32F 35 0% - - 100% 0 mhos 0 - Yes - - -
01/23/2017 00:38 Ice Warning 21.7F - 24F 32F 35 0% - - 100% 0 mhos 0 - Yes - - -
01/23/2017 00:28 Ice Warning 21.7F - 24F 32F 35 0% - - 100% 0 mhos 0 - Yes - - -
01/23/2017 00:25 Ice Warning 21.9F - 24F 32F 35 0% - - 100% 0 mhos 0 - Yes - - -
01/23/2017 00:18 Ice Warning 22.1F - 24F 32F 35 0% - - 100% 0 mhos 0 - Yes - - -
01/23/2017 00:10 Ice Warning 22.5F - 24F 32F 35 0% - - 100% 0 mhos 0 - Yes - - -
01/23/2017 00:08 Ice Warning 22.5F - 24F 32F 35 0% - - 100% 0 mhos 0 - Yes - - -
01/22/2017 23:58 Ice Warning 22.8F - 24F 32F 35 0% - - 100% 0 mhos 0 - Yes - - -
01/22/2017 23:55 Ice Warning 22.8F - 24F 32F 35 0% - - 100% 0 mhos 0 - Yes - - -
01/22/2017 23:48 Ice Warning 22.8F - 24F 32F 35 0% - - 100% 0 mhos 0 - Yes - - -
01/22/2017 23:40 Ice Warning 23.0F - 24F 32F 35 0% - - 100% 0 mhos 0 - Yes - - -
01/22/2017 23:38 Ice Warning 23.0F - 24F 32F 35 0% - - 100% 0 mhos 0 - Yes - - -
01/22/2017 23:28 Ice Warning 23.0F - 24F 32F 35 0% - - 100% 0 mhos 0 - Yes - - -
01/22/2017 23:25 Ice Warning 23.0F - 24F 32F 35 0% - - 100% 0 mhos 0 - Yes - - -
Date/Time
(MST)
Sf
Temp Chem Water Layer Surface Precipitation
Sfc Pvt Sub Frz Factor Pct Dpth DpthThk IcePct Cond Salin FI Type Intens Accum Rate
01/22/2017 23:18 Ice Warning 23.0F - 24F 32F 35 0% - - 100% 0 mhos 0 - Yes - - -
01/22/2017 23:10 Ice Warning 23.0F - 24F 32F 35 0% - - 100% 0 mhos 0 - Yes - - -
01/22/2017 23:08 Ice Warning 23.0F - 24F 32F 35 0% - - 100% 0 mhos 0 - Yes - - -
01/22/2017 22:58 Ice Warning 23.0F - 24F 32F 35 0% - - 100% 0 mhos 0 - Yes - - -
01/22/2017 22:55 Ice Warning 23.0F - 24F 32F 35 0% - - 100% 0 mhos 0 - Yes - - -
01/22/2017 22:48 Ice Warning 23.0F - 24F 32F 35 0% - - 100% 0 mhos 0 - Yes - - -
01/22/2017 22:40 Ice Warning 23.0F - 24F 32F 35 0% - - 100% 0 mhos 0 - Yes - - -
01/22/2017 22:38 Ice Warning 23.2F - 24F 32F 35 0% - - 100% 0 mhos 0 - Yes - - -
01/22/2017 22:28 Ice Warning 23.2F - 24F 32F 35 0% - - 100% 0 mhos 0 - Yes - - -
01/22/2017 22:25 Ice Warning 23.2F - 24F 32F 35 0% - - 100% 0 mhos 0 - Yes - - -
01/22/2017 22:18 Ice Warning 23.4F - 24F 32F 35 0% - - 100% 0 mhos 0 - Yes - - -
01/22/2017 22:10 Ice Warning 23.4F - 24F 32F 35 0% - - 100% 0 mhos 0 - Yes - - -
01/22/2017 22:08 Ice Warning 23.4F - 24F 32F 35 0% - - 100% 0 mhos 0 - Yes - - -
01/22/2017 21:57 Ice Warning 23.4F - 24F 32F 35 0% - - 100% 0 mhos 0 - Yes - - -
01/22/2017 21:55 Ice Warning 23.4F - 24F 32F 35 0% - - 100% 0 mhos 0 - Yes - - -
Date/Time
(MST)
Sf
Temp Chem Water Layer Surface Precipitation
Sfc Pvt Sub Frz Factor Pct Dpth DpthThk IcePct Cond Salin FI Type Intens Accum Rate
01/22/2017 21:47 Ice Warning 23.4F - 24F 32F 35 0% - - 100% 0 mhos 0 - Yes - - -
01/22/2017 21:40 Ice Warning 23.4F - 24F 32F 35 0% - - 100% 0 mhos 0 - Yes - - -
01/22/2017 21:37 Ice Warning 23.4F - 24F 32F 35 0% - - 100% 0 mhos 0 - Yes - - -
01/22/2017 21:27 Ice Warning 23.4F - 24F 32F 35 0% - - 100% 0 mhos 0 - Yes - - -
01/22/2017 21:25 Ice Warning 23.4F - 24F 32F 35 0% - - 100% 0 mhos 0 - Yes - - -
01/22/2017 21:17 Ice Warning 23.4F - 24F 32F 35 0% - - 100% 0 mhos 0 - Yes - - -
01/22/2017 21:10 Ice Warning 23.4F - 24F 32F 35 0% - - 100% 0 mhos 0 - Yes - - -
01/22/2017 21:07 Ice Warning 23.4F - 24F 32F 35 0% - - 100% 0 mhos 0 - Yes - - -
01/22/2017 20:57 Ice Warning 23.4F - 24F 32F 35 0% - - 100% 0 mhos 0 - Yes - - -
01/22/2017 20:55 Ice Warning 23.2F - 24F 32F 35 0% - - 100% 0 mhos 0 - Yes - - -
01/22/2017 20:47 Ice Warning 23.2F - 24F 32F 35 0% - - 100% 0 mhos 0 - Yes - - -
01/22/2017 20:40 Ice Warning 23.2F - 24F 32F 35 0% - - 100% 0 mhos 0 - Yes - - -
01/22/2017 20:37 Ice Warning 23.2F - 24F 32F 35 0% - - 100% 0 mhos 0 - Yes - - -
01/22/2017 20:27 Ice Warning 23.2F - 24F 32F 35 0% - - 100% 0 mhos 0 - Yes - - -
01/22/2017 20:25 Ice Warning 23.2F - 24F 32F 35 0% - - 100% 0 mhos 0 - Yes - - -
Date/Time
(MST)
Sf
Temp Chem Water Layer Surface Precipitation
Sfc Pvt Sub Frz Factor Pct Dpth DpthThk IcePct Cond Salin FI Type Intens Accum Rate
01/22/2017 20:17 Ice Warning 23.2F - 24F 32F 35 0% - - 100% 0 mhos 0 - Yes - - -
01/22/2017 20:10 Ice Warning 23.2F - 24F 32F 35 0% - - 100% 0 mhos 0 - Yes - - -
01/22/2017 20:07 Ice Warning 23.2F - 24F 32F 35 0% - - 100% 0 mhos 0 - Yes - - -
01/22/2017 19:57 Ice Warning 23.2F - 24F 32F 35 0% - - 100% 0 mhos 0 - Yes - - -
01/22/2017 19:55 Ice Warning 23.2F - 24F 32F 35 0% - - 100% 0 mhos 0 - Yes - - -
01/22/2017 19:47 Ice Warning 23.2F - 24F 32F 35 0% - - 100% 0 mhos 0 - Yes - - -
01/22/2017 19:40 Ice Warning 23.2F - 24F 32F 35 0% - - 100% 0 mhos 0 - Yes - - -
01/22/2017 19:37 Ice Warning 23.4F - 24F 32F 35 0% - - 100% 0 mhos 0 - Yes - - -
01/22/2017 19:27 Ice Warning 23.4F - 24F 32F 40 0% - - 100% 0 mhos 0 - Yes - - -
01/22/2017 19:25 Ice Warning 23.4F - 24F 32F 40 0% - - 100% 0 mhos 0 - Yes - - -
01/22/2017 19:17 Ice Warning 23.2F - 24F 32F 40 0% - - 100% 0 mhos 0 - Yes - - -
01/22/2017 19:10 Ice Warning 23.2F - 24F 32F 40 0% - - 100% 0 mhos 0 - Yes - - -
01/22/2017 19:07 Ice Warning 23.2F - 25F 32F 40 0% - - 100% 0 mhos 0 - Yes - - -
01/22/2017 18:56 Ice Warning 23.0F - 25F 32F 40 0% - - 100% 0 mhos 0 - Yes - - -
01/22/2017 18:55 Ice Warning 23.0F - 24F 32F 40 0% - - 100% 0 mhos 0 - Yes - - -
Date/Time
(MST)
Sf
Temp Chem Water Layer Surface Precipitation
Sfc Pvt Sub Frz Factor Pct Dpth DpthThk IcePct Cond Salin FI Type Intens Accum Rate
01/22/2017 18:46 Ice Warning 23.0F - 25F 32F 40 0% - - 100% 0 mhos 0 - Yes - - -
01/22/2017 18:40 Ice Warning 23.0F - 25F 32F 40 0% - - 100% 0 mhos 0 - Yes - - -
01/22/2017 18:36 Ice Warning 23.0F - 25F 32F 40 0% - - 100% 0 mhos 0 - Yes - - -
01/22/2017 18:26 Ice Warning 22.8F - 25F 32F 40 0% - - 100% 0 mhos 0 - Yes - - -
01/22/2017 18:25 Ice Warning 23.0F - 25F 32F 40 0% - - 100% 0 mhos 0 - Yes - - -
01/22/2017 18:16 Ice Warning 22.8F - 25F 32F 40 0% - - 100% 0 mhos 0 - Yes - - -
01/22/2017 18:10 Ice Warning 23.0F - 25F 32F 40 0% - - 100% 0 mhos 0 - Yes - - -
01/22/2017 18:06 Ice Warning 22.8F - 25F 32F 45 0% - - 100% 0 mhos 0 - Yes - - -
01/22/2017 17:56 Ice Warning 22.8F - 25F 32F 45 0% - - 100% 0 mhos 0 - Yes - - -
01/22/2017 17:55 Ice Warning 22.8F - 25F 32F 45 0% - - 100% 0 mhos 0 - Yes - - -
01/22/2017 17:46 Ice Warning 22.8F - 25F 32F 45 0% - - 100% 0 mhos 0 - Yes - - -
01/22/2017 17:40 Ice Warning 23.0F - 25F 32F 45 0% - - 100% 0 mhos 0 - Yes - - -
01/22/2017 17:36 Ice Warning 23.0F - 25F 32F 45 0% - - 100% 0 mhos 0 - Yes - - -
01/22/2017 17:26 Ice Warning 23.4F - 25F 32F 45 0% - - 100% 0 mhos 0 - Yes - - -
01/22/2017 17:25 Ice Warning 23.5F - 25F 32F 45 0% - - 100% 0 mhos 0 - Yes - - -
Date/Time
(MST)
Sf
Temp Chem Water Layer Surface Precipitation
Sfc Pvt Sub Frz Factor Pct Dpth DpthThk IcePct Cond Salin FI Type Intens Accum Rate
01/22/2017 17:16 Ice Warning 23.5F - 25F 32F 45 0% - - 100% 0 mhos 0 - Yes - - -
01/22/2017 17:10 Ice Warning 23.7F - 25F 32F 45 0% - - 100% 0 mhos 0 - Yes - - -
01/22/2017 17:06 Ice Warning 23.7F - 25F 32F 40 0% - - 100% 0 mhos 0 - Yes - - -
01/22/2017 16:56 Ice Warning 23.9F - 25F 32F 40 0% - - 100% 0 mhos 0 - Yes - - -
01/22/2017 16:55 Ice Warning 23.9F - 25F 32F 40 0% - - 100% 0 mhos 0 - Yes - - -
01/22/2017 16:46 Ice Warning 24.1F - 25F 32F 45 0% - - 100% 0 mhos 0 - Yes - - -
01/22/2017 16:36 Ice Warning 24.3F - 25F 32F 45 0% - - 100% 0 mhos 0 - Yes - - -
01/22/2017 16:25 Ice Warning 24.6F - 24F 32F 45 0% - - 100% 0 mhos 0 - Yes - - -
01/22/2017 16:25 Ice Warning 24.6F - 25F 32F 45 0% - - 100% 0 mhos 0 - Yes - - -
01/22/2017 16:15 Ice Warning 24.6F - 24F 32F 45 0% - - 100% 0 mhos 0 - Yes - - -
01/22/2017 16:10 Ice Warning 24.8F - 24F 32F 45 0% - - 100% 0 mhos 0 - Yes - - -
01/22/2017 16:05 Ice Warning 24.8F - 24F 32F 50 0% - - 100% 0 mhos 0 - Yes - - -
Change End Date:

Copyright © 1998-2015 Vaisala, Inc.
All Rights Reserved
Send comments about the data to:
SCAN Web ® is a registered trademark of Vaisala, Inc.
SCAN Web Version 6.0